Time;durP1;ratioP1;P1;durP2;ratioP2;P2;SDS_P1;SDS_P2;PMS_P1;PMS_P2;Temp;Humidity;BMP_temperature;BMP_pressure;BME280_temperature;BME280_humidity;BME280_pressure;Samples;Min_cycle;Max_cycle;Signal;HPM_P1;HPM_P2
2022/01/20 00:03:30;;;;;;;4.35;0.60;;;;;;;0.34;67.75;99061.16;5003222;28;20102;-70
2022/01/20 00:27:34;;;;;;;0.73;0.60;;;;;;;0.28;55.98;99134.25;5002673;28;20177;-71
2022/01/20 00:35:21;;;;;;;5.72;1.45;;;;;;;0.42;58.38;99144.63;5002330;28;20526;-71
2022/01/20 00:37:47;;;;;;;4.60;0.80;;;;;;;0.43;59.14;99152.31;5002719;28;20158;-72
2022/01/20 00:40:13;;;;;;;1.63;1.00;;;;;;;0.40;59.98;99147.16;5002636;28;20042;-71
2022/01/20 00:42:38;;;;;;;1.20;0.73;;;;;;;0.44;60.38;99148.94;5002242;28;20033;-71
2022/01/20 00:45:05;;;;;;;2.53;0.80;;;;;;;0.38;60.31;99140.34;5002315;28;20562;-71
2022/01/20 00:47:30;;;;;;;3.30;1.00;;;;;;;0.41;61.16;99161.66;4985973;28;20033;-71
2022/01/20 00:49:56;;;;;;;3.85;0.90;;;;;;;0.40;61.71;99154.81;4986156;28;20058;-71
2022/01/20 00:52:21;;;;;;;1.08;0.80;;;;;;;0.37;61.82;99152.25;5002107;28;20034;-71
2022/01/20 00:54:47;;;;;;;2.03;0.80;;;;;;;0.33;62.28;99161.56;5002474;28;20629;-71
2022/01/20 00:57:13;;;;;;;2.20;0.98;;;;;;;0.31;62.67;99157.25;4986005;28;20030;-71
2022/01/20 00:59:38;;;;;;;3.40;1.02;;;;;;;0.27;62.93;99164.06;5046880;28;20044;-71
2022/01/20 01:02:07;;;;;;;3.25;0.98;;;;;;;0.20;61.33;99165.66;5064013;28;20029;-71
2022/01/20 01:04:32;;;;;;;6.53;1.00;;;;;;;0.18;61.00;99163.91;5064040;28;20441;-71
2022/01/20 01:09:23;;;;;;;2.63;0.80;;;;;;;0.08;61.24;99180.81;5064010;28;20092;-71
2022/01/20 01:11:51;;;;;;;3.90;1.02;;;;;;;0.00;61.46;99170.47;5063816;28;20021;-71
2022/01/20 01:14:18;;;;;;;1.52;0.68;;;;;;;-0.04;61.71;99177.22;5063779;28;20025;-71
2022/01/20 01:22:21;;;;;;;4.55;0.90;;;;;;;-0.17;60.90;99193.16;5063884;28;20136;-71
2022/01/20 01:24:53;;;;;;;2.85;1.27;;;;;;;-0.24;60.31;99205.00;5063949;28;20024;-71
2022/01/20 01:27:21;;;;;;;1.27;1.10;;;;;;;-0.27;60.44;99207.47;5063837;28;20489;-71
2022/01/20 01:32:49;;;;;;;3.08;0.90;;;;;;;-0.35;60.51;99209.06;5063466;28;20025;-71
2022/01/20 01:35:17;;;;;;;3.13;0.90;;;;;;;-0.30;60.19;99192.09;5062913;28;20578;-71
2022/01/20 01:40:22;;;;;;;2.33;0.98;;;;;;;-0.40;58.99;99201.31;5063753;28;20036;-71
2022/01/20 01:42:51;;;;;;;3.63;0.95;;;;;;;-0.34;59.21;99226.94;5063393;28;20098;-71
2022/01/20 01:45:19;;;;;;;3.08;1.05;;;;;;;-0.36;59.33;99238.78;5063565;28;20016;-71
2022/01/20 01:47:45;;;;;;;3.15;1.35;;;;;;;-0.41;57.60;99231.06;5063412;28;20017;-71
2022/01/20 01:50:13;;;;;;;6.10;1.15;;;;;;;-0.44;56.65;99240.34;5063318;28;20448;-71
2022/01/20 01:52:39;;;;;;;5.53;1.10;;;;;;;-0.47;56.87;99243.72;5063233;28;20123;-71
2022/01/20 01:55:05;;;;;;;2.47;1.10;;;;;;;-0.52;56.06;99240.22;5045598;28;20032;-72
2022/01/20 01:57:31;;;;;;;1.90;0.60;;;;;;;-0.53;56.10;99234.22;5063292;28;20027;-72
2022/01/20 01:59:56;;;;;;;9.23;1.17;;;;;;;-0.54;56.43;99229.97;5063151;28;20115;-70
2022/01/20 02:02:22;;;;;;;3.97;1.40;;;;;;;-0.50;52.42;99225.81;5063244;28;20025;-69
2022/01/20 02:04:49;;;;;;;3.55;0.77;;;;;;;-0.53;52.73;99235.94;5063170;28;20033;-72
2022/01/20 02:18:42;;;;;;;1.95;0.90;;;;;;;-0.45;53.08;99244.59;5067046;28;20027;-71
2022/01/20 02:21:08;;;;;;;6.03;1.10;;;;;;;-0.42;52.72;99254.84;5067083;28;20087;-71
2022/01/20 02:23:33;;;;;;;3.33;0.88;;;;;;;-0.40;51.84;99260.81;5049029;28;20489;-73
2022/01/20 02:25:59;;;;;;;2.30;0.90;;;;;;;-0.38;51.38;99273.59;5067085;28;20029;-72
2022/01/20 02:28:25;;;;;;;3.50;0.80;;;;;;;-0.36;50.75;99249.00;5066765;28;20028;-72
2022/01/20 02:30:50;;;;;;;2.78;0.82;;;;;;;-0.31;51.25;99244.84;5066870;28;20036;-70
2022/01/20 02:33:19;;;;;;;5.05;1.40;;;;;;;-0.30;50.28;99254.19;5066825;28;20021;-71
2022/01/20 02:35:53;;;;;;;4.97;0.95;;;;;;;-0.33;50.55;99246.50;5048439;28;20072;-70
2022/01/20 02:38:32;;;;;;;1.55;0.85;;;;;;;-0.27;50.61;99253.38;5066836;28;20489;-72
2022/01/20 02:46:29;;;;;;;2.53;1.65;;;;;;;-0.15;49.12;99257.84;5066929;28;20403;-71
2022/01/20 02:48:54;;;;;;;2.83;0.90;;;;;;;-0.16;49.37;99251.03;5066642;28;20020;-71
2022/01/20 02:51:19;;;;;;;3.03;1.00;;;;;;;-0.14;49.95;99259.53;5066659;28;20046;-73
2022/01/20 02:53:45;;;;;;;6.28;1.02;;;;;;;-0.11;50.27;99268.97;5066331;28;20084;-71
2022/01/20 02:56:10;;;;;;;3.47;0.82;;;;;;;-0.15;50.15;99262.94;5066515;28;20024;-72
2022/01/20 02:58:36;;;;;;;3.03;1.00;;;;;;;-0.17;50.10;99270.56;5048469;28;20100;-72
2022/01/20 03:01:01;;;;;;;1.58;0.90;;;;;;;-0.17;50.05;99254.41;5066704;28;20041;-72
2022/01/20 03:03:27;;;;;;;2.17;0.95;;;;;;;-0.25;50.09;99246.63;5066288;28;20026;-72
2022/01/20 03:05:52;;;;;;;5.32;0.93;;;;;;;-0.17;49.46;99260.38;5066060;28;20025;-72
2022/01/20 03:08:18;;;;;;;1.75;0.93;;;;;;;-0.16;49.73;99268.88;5066344;28;20025;-72
2022/01/20 03:10:44;;;;;;;3.22;0.95;;;;;;;-0.19;49.47;99256.09;5066163;28;20021;-74
2022/01/20 03:13:09;;;;;;;1.73;0.88;;;;;;;-0.24;49.39;99252.59;5065778;28;20025;-72
2022/01/20 03:15:36;;;;;;;5.97;1.33;;;;;;;-0.16;49.65;99256.13;5065963;28;20024;-71
2022/01/20 03:18:03;;;;;;;1.98;1.10;;;;;;;-0.16;49.83;99269.72;5066140;28;20021;-71
2022/01/20 03:20:29;;;;;;;1.15;0.77;;;;;;;-0.18;48.64;99268.00;5048003;28;20021;-72
2022/01/20 03:22:54;;;;;;;2.17;0.98;;;;;;;-0.19;48.83;99276.50;5064856;28;20372;-72
2022/01/20 03:25:19;;;;;;;3.22;0.85;;;;;;;-0.19;49.06;99276.50;5065830;28;20044;-72
2022/01/20 03:27:45;;;;;;;3.20;1.10;;;;;;;-0.27;49.04;99263.56;5064742;28;20048;-72
2022/01/20 03:30:11;;;;;;;5.68;1.00;;;;;;;-0.18;49.34;99278.19;5065278;28;20044;-72
2022/01/20 03:32:36;;;;;;;3.10;1.60;;;;;;;-0.28;49.58;99267.84;5065718;28;20025;-72
2022/01/20 03:35:04;;;;;;;3.15;0.90;;;;;;;-0.19;49.33;99284.16;5065461;28;20101;-72
2022/01/20 03:37:30;;;;;;;3.72;0.90;;;;;;;-0.20;49.38;99277.31;5065526;28;20029;-72
2022/01/20 03:39:55;;;;;;;3.08;0.80;;;;;;;-0.24;49.48;99303.59;5047662;28;20029;-71
2022/01/20 03:42:21;;;;;;;2.42;0.70;;;;;;;-0.34;48.90;99292.38;5047746;28;20017;-71
2022/01/20 03:44:46;;;;;;;2.30;1.33;;;;;;;-0.24;48.87;99318.91;5047688;28;20052;-73
2022/01/20 03:47:12;;;;;;;6.40;0.93;;;;;;;-0.33;49.10;99294.09;5065660;28;20028;-73
2022/01/20 03:52:04;;;;;;;2.08;0.70;;;;;;;-0.26;48.80;99336.75;5065228;28;20017;-73
2022/01/20 03:54:29;;;;;;;3.42;0.90;;;;;;;-0.23;48.43;99310.41;5065324;28;20088;-74
2022/01/20 03:56:55;;;;;;;1.95;0.80;;;;;;;-0.28;48.71;99331.59;5047257;28;20039;-72
2022/01/20 03:59:20;;;;;;;4.85;1.20;;;;;;;-0.26;49.06;99349.50;5047338;28;20432;-71
2022/01/20 04:01:46;;;;;;;3.05;1.30;;;;;;;-0.29;49.62;99329.88;5065123;28;20056;-73
2022/01/20 04:04:11;;;;;;;1.45;0.85;;;;;;;-0.28;49.84;99359.66;5047197;28;20029;-73
2022/01/20 04:06:37;;;;;;;1.15;0.60;;;;;;;-0.38;49.36;99332.25;5064976;28;20025;-72
2022/01/20 04:09:03;;;;;;;2.40;0.55;;;;;;;-0.26;48.97;99360.53;5065175;28;20379;-72
2022/01/20 04:11:29;;;;;;;2.92;0.77;;;;;;;-0.31;48.98;99366.41;5065032;28;20628;-72
2022/01/20 04:13:55;;;;;;;1.95;1.23;;;;;;;-0.28;48.87;99369.88;5064843;28;20592;-71
2022/01/20 04:16:38;;;;;;;4.05;0.90;;;;;;;-0.25;49.47;99374.16;5064956;28;20020;-72
2022/01/20 04:19:07;;;;;;;0.90;0.70;;;;;;;-0.28;48.64;99367.31;5064992;28;20104;-71
2022/01/20 04:21:33;;;;;;;3.15;1.45;;;;;;;-0.28;48.61;99363.91;5046631;28;20166;-72
2022/01/20 04:24:00;;;;;;;0.82;0.70;;;;;;;-0.31;48.77;99392.78;5046559;28;20102;-72
2022/01/20 04:26:26;;;;;;;1.70;0.88;;;;;;;-0.28;48.72;99379.22;5064711;28;20095;-69
2022/01/20 04:28:56;;;;;;;3.30;0.88;;;;;;;-0.25;48.07;99369.06;5046744;28;20115;-73
2022/01/20 04:31:30;;;;;;;2.97;0.90;;;;;;;-0.23;47.48;99392.03;5064734;28;20081;-71
2022/01/20 04:33:56;;;;;;;3.25;0.60;;;;;;;-0.24;47.99;99387.78;5064198;28;20107;-69
2022/01/20 04:36:23;;;;;;;5.65;1.00;;;;;;;-0.28;48.45;99410.69;5064244;28;20044;-72
2022/01/20 04:38:48;;;;;;;1.75;0.70;;;;;;;-0.30;48.38;99398.72;5064519;28;20082;-73
2022/01/20 04:41:14;;;;;;;2.40;0.70;;;;;;;-0.36;47.92;99407.13;5064432;28;20021;-70
2022/01/20 04:43:39;;;;;;;2.85;0.85;;;;;;;-0.30;47.93;99414.88;5064280;28;20028;-72
2022/01/20 04:46:13;;;;;;;1.88;1.05;;;;;;;-0.26;46.80;99364.78;5064481;28;20049;-73
2022/01/20 04:59:25;;;;;;;1.25;0.63;;;;;;;-0.12;45.02;99444.16;5064065;28;20028;-69
2022/01/20 05:01:50;;;;;;;4.13;1.27;;;;;;;-0.13;45.34;99460.28;5064342;28;20025;-71
2022/01/20 05:04:16;;;;;;;0.60;0.57;;;;;;;-0.12;45.24;99441.59;5063990;28;20024;-71
2022/01/20 05:06:44;;;;;;;3.10;0.73;;;;;;;-0.19;44.76;99432.13;5063792;28;20021;-70
2022/01/20 05:09:11;;;;;;;1.48;1.02;;;;;;;-0.26;45.62;99434.50;5063847;28;20028;-70
2022/01/20 05:11:42;;;;;;;0.60;0.60;;;;;;;-0.22;45.29;99448.19;5063985;28;20025;-70
2022/01/20 05:14:07;;;;;;;1.45;0.68;;;;;;;-0.15;45.37;99447.50;5063930;28;20029;-70
2022/01/20 05:16:33;;;;;;;1.88;0.82;;;;;;;-0.18;46.09;99472.09;5063800;28;20104;-70
2022/01/20 05:19:01;;;;;;;1.10;0.70;;;;;;;-0.24;46.32;99462.63;5063759;28;20031;-69
2022/01/20 05:21:27;;;;;;;1.20;0.73;;;;;;;-0.20;45.95;99476.28;5063577;28;20024;-70
2022/01/20 05:23:52;;;;;;;2.40;1.02;;;;;;;-0.30;46.45;99442.94;5063475;28;20085;-70
2022/01/20 05:26:17;;;;;;;2.28;0.73;;;;;;;-0.23;46.66;99471.13;5045599;28;20025;-71
2022/01/20 05:28:43;;;;;;;0.90;0.77;;;;;;;-0.21;47.12;99487.34;5063709;28;20047;-72
2022/01/20 05:31:08;;;;;;;4.32;0.70;;;;;;;-0.11;47.59;99499.44;5045567;28;20028;-72
2022/01/20 05:33:34;;;;;;;4.05;1.13;;;;;;;-0.09;47.81;99510.53;5063625;28;20021;-72
2022/01/20 05:35:59;;;;;;;1.73;0.77;;;;;;;-0.16;48.24;99512.09;5063282;28;20049;-71
2022/01/20 05:38:24;;;;;;;3.45;1.05;;;;;;;-0.17;48.62;99520.59;5063434;28;20025;-70
2022/01/20 05:40:50;;;;;;;2.95;0.77;;;;;;;-0.09;48.91;99519.88;5063397;28;20032;-70
2022/01/20 05:43:16;;;;;;;4.55;1.02;;;;;;;-0.10;49.07;99536.91;5063366;28;20029;-73
2022/01/20 05:45:41;;;;;;;1.40;1.08;;;;;;;-0.07;49.22;99539.53;5062976;28;20129;-67
2022/01/20 05:48:13;;;;;;;10.00;0.85;;;;;;;-0.07;49.53;99520.78;5045281;28;20108;-75
2022/01/20 05:50:39;;;;;;;8.48;1.35;;;;;;;-0.04;49.86;99531.06;5063143;28;20021;-69
2022/01/20 05:53:06;;;;;;;1.17;0.80;;;;;;;-0.01;50.07;99521.78;5045260;28;20031;-70
2022/01/20 05:55:32;;;;;;;1.38;0.70;;;;;;;0.02;49.89;99535.44;5063236;28;20021;-68
2022/01/20 05:57:58;;;;;;;4.88;1.10;;;;;;;0.05;50.22;99530.41;5062836;28;20032;-70
2022/01/20 06:00:25;;;;;;;2.65;1.10;;;;;;;0.06;50.83;99529.56;5063191;28;20024;-65
2022/01/20 06:05:36;;;;;;;14.43;1.23;;;;;;;0.13;50.86;99549.25;5063318;28;20036;-70
2022/01/20 06:08:03;;;;;;;5.22;1.10;;;;;;;0.07;51.14;99544.91;5063304;28;20033;-74
2022/01/20 06:10:28;;;;;;;3.08;0.70;;;;;;;0.13;50.94;99539.03;5063204;28;20029;-76
2022/01/20 06:12:54;;;;;;;2.53;0.85;;;;;;;0.10;51.29;99557.72;5063245;28;20100;-73
2022/01/20 06:15:19;;;;;;;2.25;0.73;;;;;;;0.14;51.36;99570.56;5063230;28;20055;-73
2022/01/20 06:17:45;;;;;;;2.78;0.70;;;;;;;0.09;51.38;99506.66;5063189;28;20021;-72
2022/01/20 06:20:11;;;;;;;2.55;0.98;;;;;;;0.14;51.30;99576.53;5063380;28;20318;-75
2022/01/20 06:22:37;;;;;;;8.10;1.23;;;;;;;0.18;51.47;99582.53;5045213;28;20093;-76
2022/01/20 06:25:03;;;;;;;3.70;1.17;;;;;;;0.26;51.64;99577.63;5045744;28;20029;-76
2022/01/20 06:27:29;;;;;;;2.40;0.80;;;;;;;0.36;51.56;99605.03;5063303;28;20021;-75
2022/01/20 06:29:55;;;;;;;4.43;0.80;;;;;;;0.34;51.73;99604.13;5063032;28;20031;-75
2022/01/20 06:32:20;;;;;;;5.32;1.10;;;;;;;0.32;51.65;99609.22;5045255;28;20507;-75
2022/01/20 06:34:46;;;;;;;1.88;0.90;;;;;;;0.41;51.65;99638.34;5063201;28;20071;-75
2022/01/20 06:37:12;;;;;;;0.70;0.63;;;;;;;0.41;51.46;99631.53;5044998;28;20021;-77
2022/01/20 06:39:37;;;;;;;3.60;1.13;;;;;;;0.44;51.38;99644.38;5063250;28;20021;-71
2022/01/20 06:42:03;;;;;;;2.13;0.70;;;;;;;0.49;50.98;99649.56;5063084;28;20017;-71
2022/01/20 06:44:28;;;;;;;1.85;0.57;;;;;;;0.53;50.71;99656.47;5062715;28;20052;-74
2022/01/20 06:46:54;;;;;;;1.50;0.65;;;;;;;0.52;50.57;99664.09;5045247;28;20040;-75
2022/01/20 06:49:19;;;;;;;2.35;0.90;;;;;;;0.54;50.66;99678.63;5062751;28;20020;-75
2022/01/20 06:51:45;;;;;;;3.13;0.70;;;;;;;0.55;50.71;99684.59;5062656;28;20028;-75
2022/01/20 06:54:11;;;;;;;1.52;0.75;;;;;;;0.55;50.17;99680.34;5062945;28;20028;-74
2022/01/20 06:56:37;;;;;;;2.92;0.77;;;;;;;0.48;50.30;99670.81;5064962;28;20017;-76
2022/01/20 06:59:03;;;;;;;1.35;1.23;;;;;;;0.60;49.87;99683.00;5048629;28;20158;-73
2022/01/20 07:01:28;;;;;;;1.40;0.73;;;;;;;0.63;49.27;99687.28;5066789;28;20562;-77
2022/01/20 07:03:54;;;;;;;1.80;0.77;;;;;;;0.63;49.08;99695.84;5066521;28;20262;-76
2022/01/20 07:06:19;;;;;;;2.85;0.88;;;;;;;0.59;49.45;99691.50;5065727;28;20021;-75
2022/01/20 07:08:45;;;;;;;1.88;0.80;;;;;;;0.60;49.41;99704.31;5066467;28;20543;-76
2022/01/20 07:11:10;;;;;;;1.67;0.80;;;;;;;0.52;49.25;99676.84;5066665;28;20039;-76
2022/01/20 07:13:35;;;;;;;3.03;0.70;;;;;;;0.52;49.89;99702.41;5047719;28;20033;-77
2022/01/20 07:16:02;;;;;;;1.08;0.88;;;;;;;0.61;49.36;99721.34;5046696;28;20025;-77
2022/01/20 07:18:27;;;;;;;2.47;0.80;;;;;;;0.54;48.95;99714.41;5065596;28;20017;-78
2022/01/20 07:20:53;;;;;;;1.83;0.90;;;;;;;0.58;48.92;99733.19;5066185;28;20048;-77
2022/01/20 07:23:18;;;;;;;1.00;0.70;;;;;;;0.60;48.87;99723.88;5065563;28;20469;-74
2022/01/20 07:25:44;;;;;;;4.10;0.82;;;;;;;0.57;47.80;99722.13;5065321;28;20032;-76
2022/01/20 07:28:10;;;;;;;4.43;0.90;;;;;;;0.49;47.91;99755.16;5064323;28;20137;-76
2022/01/20 07:30:35;;;;;;;2.72;0.85;;;;;;;0.62;47.61;99742.66;5064808;28;20028;-73
2022/01/20 07:33:05;;;;;;;0.93;0.70;;;;;;;0.61;48.07;99731.56;5047542;28;20020;-74
2022/01/20 07:35:31;;;;;;;2.08;0.63;;;;;;;0.56;47.81;99722.94;5064604;28;20109;-79
2022/01/20 07:37:57;;;;;;;5.25;0.80;;;;;;;0.55;48.29;99733.13;5064515;28;20021;-76
2022/01/20 07:40:22;;;;;;;4.43;0.95;;;;;;;0.51;48.43;99731.34;5064371;28;20484;-76
2022/01/20 07:42:47;;;;;;;6.03;1.63;;;;;;;0.55;48.21;99741.66;5064840;28;20075;-75
2022/01/20 07:45:13;;;;;;;1.20;0.73;;;;;;;0.56;47.76;99747.63;5065278;28;20029;-77
2022/01/20 07:47:38;;;;;;;4.85;0.80;;;;;;;0.46;47.41;99751.69;5047261;28;20086;-77
2022/01/20 07:50:04;;;;;;;0.73;0.55;;;;;;;0.62;46.75;99765.66;5047102;28;20031;-78
2022/01/20 07:52:30;;;;;;;5.70;0.73;;;;;;;0.53;46.45;99755.22;5064648;28;20416;-76
2022/01/20 07:54:55;;;;;;;2.92;0.77;;;;;;;0.59;46.07;99774.09;5064631;28;20024;-77
2022/01/20 07:57:21;;;;;;;1.42;0.88;;;;;;;0.58;46.68;99777.47;5064951;28;20076;-77
2022/01/20 07:59:46;;;;;;;2.20;0.63;;;;;;;0.57;46.46;99764.69;5064849;28;20021;-78
2022/01/20 08:02:12;;;;;;;2.22;0.70;;;;;;;0.59;46.37;99743.44;5046756;28;20025;-72
2022/01/20 08:04:37;;;;;;;3.30;1.13;;;;;;;0.46;46.38;99759.34;5064518;28;20039;-76
2022/01/20 08:07:08;;;;;;;5.97;0.88;;;;;;;0.52;46.71;99777.34;5064729;28;20027;-78
2022/01/20 08:09:34;;;;;;;2.13;0.60;;;;;;;0.63;45.11;99777.59;5045039;28;20025;-74
2022/01/20 08:11:59;;;;;;;8.85;0.80;;;;;;;0.74;44.50;99809.34;5063653;28;20021;-72
2022/01/20 08:14:25;;;;;;;1.83;0.80;;;;;;;0.99;45.11;99814.97;5063117;28;20025;-75
2022/01/20 08:16:51;;;;;;;0.90;0.60;;;;;;;1.46;44.69;99789.47;5064246;28;20162;-74
2022/01/20 08:19:16;;;;;;;2.45;0.70;;;;;;;1.80;42.57;99799.47;5064704;28;20067;-77
2022/01/20 08:21:52;;;;;;;0.93;0.60;;;;;;;1.97;43.41;99810.88;5064453;28;20457;-77
2022/01/20 08:24:17;;;;;;;0.88;0.50;;;;;;;2.20;42.32;99801.84;5064377;28;20036;-75
2022/01/20 08:26:42;;;;;;;1.42;0.50;;;;;;;2.29;41.75;99803.66;5063957;28;20443;-75
2022/01/20 08:29:08;;;;;;;0.90;0.60;;;;;;;2.41;41.85;99824.34;5046133;28;20033;-76
2022/01/20 08:31:33;;;;;;;3.03;0.75;;;;;;;2.47;41.12;99834.72;5064378;28;20056;-76
2022/01/20 08:33:59;;;;;;;3.00;0.60;;;;;;;2.38;40.59;99847.38;5046212;28;20033;-76
2022/01/20 08:36:24;;;;;;;1.10;0.68;;;;;;;2.14;40.60;99830.75;5063843;28;20047;-76
2022/01/20 08:38:50;;;;;;;1.52;0.70;;;;;;;2.15;40.89;99844.44;5063914;28;20055;-77
2022/01/20 08:41:15;;;;;;;1.13;0.60;;;;;;;2.05;41.25;99841.72;5064036;28;20084;-77
2022/01/20 08:43:41;;;;;;;1.08;0.68;;;;;;;2.13;41.54;99831.59;5063772;28;20385;-77
2022/01/20 08:46:08;;;;;;;3.30;0.70;;;;;;;2.19;40.54;99839.38;5063634;28;20029;-76
2022/01/20 08:48:35;;;;;;;2.95;0.60;;;;;;;2.18;41.03;99826.56;5045405;28;20024;-75
2022/01/20 08:51:01;;;;;;;2.00;0.60;;;;;;;2.47;40.34;99809.09;5063353;28;20099;-74
2022/01/20 08:53:27;;;;;;;0.57;0.50;;;;;;;2.38;39.19;99826.88;5063309;28;20261;-74
2022/01/20 08:55:53;;;;;;;0.52;0.52;;;;;;;2.56;40.13;99867.31;5063433;28;20025;-74
2022/01/20 08:58:19;;;;;;;1.70;0.68;;;;;;;2.60;39.41;99840.03;5045652;28;20065;-70
2022/01/20 09:00:44;;;;;;;4.25;0.68;;;;;;;2.79;39.14;99860.81;5063709;28;20103;-75
2022/01/20 09:03:11;;;;;;;1.38;0.80;;;;;;;2.95;38.65;99831.13;5063559;28;20032;-76
2022/01/20 09:05:36;;;;;;;3.45;0.55;;;;;;;3.23;38.59;99859.69;5063327;28;20024;-76
2022/01/20 09:08:02;;;;;;;0.88;0.50;;;;;;;3.65;38.56;99852.50;5045165;28;20028;-75
2022/01/20 09:10:36;;;;;;;2.75;0.63;;;;;;;4.12;35.49;99864.94;5063236;28;20055;-74
2022/01/20 09:15:46;;;;;;;2.08;0.80;;;;;;;4.41;34.83;99864.34;5063332;28;20035;-75
2022/01/20 09:18:11;;;;;;;1.02;0.70;;;;;;;4.44;35.30;99870.34;5063183;28;20017;-77
2022/01/20 09:20:38;;;;;;;0.65;0.50;;;;;;;4.60;35.00;99888.47;5062071;28;20025;-75
2022/01/20 09:23:05;;;;;;;2.38;0.77;;;;;;;4.78;34.50;99910.91;5063062;28;20126;-76
2022/01/20 09:25:30;;;;;;;1.77;0.57;;;;;;;4.84;34.08;99920.34;5045142;28;20025;-76
2022/01/20 09:27:56;;;;;;;3.72;0.60;;;;;;;4.86;34.00;99925.53;5063155;28;20461;-75
2022/01/20 09:30:23;;;;;;;2.55;0.90;;;;;;;4.91;32.72;99860.41;5062836;28;20021;-72
2022/01/20 09:32:59;;;;;;;1.35;0.50;;;;;;;4.69;32.37;99914.28;5044835;28;20116;-75
2022/01/20 09:35:35;;;;;;;7.72;0.93;;;;;;;4.60;33.40;99942.44;5062676;28;20041;-76
2022/01/20 09:38:05;;;;;;;0.50;0.50;;;;;;;4.94;32.57;99934.16;5062764;28;20025;-75
2022/01/20 09:40:33;;;;;;;1.40;0.70;;;;;;;4.94;33.14;99940.16;5062817;28;20017;-74
2022/01/20 09:42:59;;;;;;;0.98;0.70;;;;;;;4.88;32.13;99898.97;5062960;28;20024;-70
2022/01/20 09:45:25;;;;;;;0.50;0.40;;;;;;;4.88;31.51;99867.22;5044549;28;20116;-73
2022/01/20 09:47:51;;;;;;;0.95;0.60;;;;;;;4.71;31.76;99940.00;5062498;28;20047;-73
2022/01/20 09:50:19;;;;;;;0.88;0.70;;;;;;;4.47;31.64;99938.94;5062276;28;20033;-74
2022/01/20 09:52:46;;;;;;;1.67;0.70;;;;;;;4.62;32.27;99939.94;5044270;28;20029;-73
2022/01/20 09:55:12;;;;;;;4.55;0.80;;;;;;;4.91;30.86;99952.13;5062621;28;20021;-73
2022/01/20 09:57:37;;;;;;;2.72;1.02;;;;;;;4.92;30.25;99957.28;5062452;28;20020;-73
2022/01/20 10:00:08;;;;;;;0.57;0.43;;;;;;;4.78;30.97;99970.06;5062634;28;20025;-75
2022/01/20 10:02:33;;;;;;;1.20;0.75;;;;;;;5.01;31.29;99976.22;5062278;28;20057;-76
2022/01/20 10:04:59;;;;;;;1.08;0.65;;;;;;;5.18;30.13;99987.50;5062349;28;20104;-74
2022/01/20 10:07:31;;;;;;;1.05;0.60;;;;;;;5.42;29.56;99988.53;5062239;28;20124;-71
2022/01/20 10:09:57;;;;;;;1.50;0.60;;;;;;;5.57;29.34;99984.31;5062321;28;20033;-74
2022/01/20 10:12:30;;;;;;;24.20;1.27;;;;;;;5.85;29.69;99996.47;5062494;28;20346;-74
2022/01/20 10:14:57;;;;;;;2.13;0.93;;;;;;;6.22;29.75;99993.19;5062343;28;20029;-71
2022/01/20 10:17:27;;;;;;;2.50;0.85;;;;;;;6.27;29.03;99976.88;5062299;28;20070;-73
2022/01/20 10:19:54;;;;;;;1.88;0.73;;;;;;;6.57;29.01;100001.00;5062429;28;20024;-74
2022/01/20 10:22:23;;;;;;;4.97;0.80;;;;;;;6.52;28.86;100022.47;5062090;28;20142;-74
2022/01/20 10:25:08;;;;;;;3.50;0.90;;;;;;;6.37;27.71;100010.41;5043826;28;20027;-74
2022/01/20 10:27:48;;;;;;;3.30;0.88;;;;;;;5.91;28.84;100006.81;5062123;28;20046;-76
2022/01/20 10:30:15;;;;;;;0.50;0.50;;;;;;;5.85;28.92;100019.66;5062210;28;20036;-71
2022/01/20 10:32:50;;;;;;;1.00;0.63;;;;;;;5.72;28.38;100024.72;5065852;28;20147;-74
2022/01/20 10:35:18;;;;;;;0.50;0.50;;;;;;;5.25;29.09;100024.44;5065949;28;20115;-74
2022/01/20 10:38:01;;;;;;;3.42;0.77;;;;;;;4.72;29.33;100034.28;5066032;28;20078;-74
2022/01/20 10:40:27;;;;;;;1.67;0.80;;;;;;;4.34;29.60;99907.13;5048086;28;20037;-72
2022/01/20 10:42:53;;;;;;;3.10;0.85;;;;;;;3.87;29.67;100023.91;5065679;28;20036;-69
2022/01/20 10:45:29;;;;;;;4.13;0.90;;;;;;;3.31;29.84;100013.72;5065948;28;20023;-73
2022/01/20 10:48:00;;;;;;;1.02;0.68;;;;;;;3.11;30.40;99950.19;5065798;28;20391;-68
2022/01/20 10:50:32;;;;;;;1.20;0.82;;;;;;;2.92;30.38;99997.75;5065765;28;20021;-74
2022/01/20 10:52:57;;;;;;;;;;;;;;;2.54;31.10;100029.59;5066195;28;20032;-68
2022/01/20 10:55:26;;;;;;;1.58;0.80;;;;;;;2.29;31.54;100057.28;5065764;28;19976;-75
2022/01/20 10:57:53;;;;;;;1.83;0.80;;;;;;;2.15;31.56;100065.56;5047686;28;20025;-73
2022/01/20 11:00:21;;;;;;;2.22;0.63;;;;;;;1.99;32.00;100077.19;5065812;28;20455;-73
2022/01/20 11:02:57;;;;;;;1.10;1.00;;;;;;;1.84;32.74;100039.28;5065862;28;20075;-74
2022/01/20 11:05:25;;;;;;;2.42;1.00;;;;;;;1.82;32.74;100058.91;5065425;28;20052;-71
2022/01/20 11:07:51;;;;;;;2.20;1.02;;;;;;;1.79;32.47;99982.88;5047430;28;20074;-74
2022/01/20 11:10:18;;;;;;;0.80;0.80;;;;;;;1.73;32.27;100085.13;5065845;28;20133;-72
2022/01/20 11:12:45;;;;;;;1.65;0.80;;;;;;;1.84;32.21;100083.69;5065567;28;20075;-70
2022/01/20 11:15:14;;;;;;;3.20;0.75;;;;;;;1.95;30.73;100101.84;5065433;28;20035;-72
2022/01/20 11:17:41;;;;;;;3.30;0.93;;;;;;;1.86;30.22;100096.53;5065416;28;20017;-74
2022/01/20 11:20:12;;;;;;;3.58;0.88;;;;;;;1.85;30.52;100095.66;5065096;28;20024;-72
2022/01/20 11:23:00;;;;;;;3.58;1.08;;;;;;;2.21;30.38;100042.63;5065166;28;20047;-75
2022/01/20 11:25:29;;;;;;;1.98;0.98;;;;;;;2.43;29.67;100121.63;5064898;28;20032;-69
2022/01/20 11:28:09;;;;;;;3.40;1.05;;;;;;;2.92;28.93;100070.44;5064022;28;20064;-75
2022/01/20 11:30:39;;;;;;;1.17;0.80;;;;;;;3.25;28.19;100098.31;5062703;28;20040;-73
2022/01/20 11:33:06;;;;;;;2.05;0.80;;;;;;;3.45;28.35;100112.34;5064752;28;20097;-73
2022/01/20 11:35:36;;;;;;;2.92;0.80;;;;;;;3.63;27.68;100128.00;5046509;28;20717;-74
2022/01/20 11:38:03;;;;;;;2.33;0.70;;;;;;;4.05;28.39;100129.50;5064172;28;20064;-72
2022/01/20 11:40:28;;;;;;;1.15;0.68;;;;;;;4.36;27.59;100141.03;5064538;28;20143;-73
2022/01/20 11:43:07;;;;;;;3.13;0.88;;;;;;;3.52;27.35;100107.28;5063339;28;20021;-75
2022/01/20 11:45:36;;;;;;;1.02;0.70;;;;;;;2.65;27.88;100114.34;5064682;28;20025;-75
2022/01/20 11:48:17;;;;;;;2.58;1.08;;;;;;;1.92;28.79;100117.13;5064534;28;20017;-76
2022/01/20 11:50:44;;;;;;;2.17;0.70;;;;;;;1.44;29.97;100149.28;5064984;28;20029;-73
2022/01/20 11:53:17;;;;;;;1.02;0.60;;;;;;;1.09;30.41;100157.78;5064719;28;20025;-75
2022/01/20 11:55:53;;;;;;;6.85;1.75;;;;;;;0.84;30.68;100104.34;5064939;28;20035;-70
2022/01/20 11:58:22;;;;;;;0.95;0.70;;;;;;;0.90;31.22;100134.28;5065242;28;20066;-74
2022/01/20 12:01:08;;;;;;;1.35;0.80;;;;;;;0.80;31.22;100155.31;5064715;28;20085;-71
2022/01/20 12:03:35;;;;;;;3.58;0.70;;;;;;;0.69;31.68;100155.88;5064609;28;20075;-74
2022/01/20 12:06:12;;;;;;;3.08;0.70;;;;;;;0.68;31.46;100164.38;5064529;28;20269;-74
2022/01/20 12:08:50;;;;;;;1.63;0.98;;;;;;;0.58;31.84;100139.38;5064783;28;20024;-75
2022/01/20 12:11:16;;;;;;;2.58;0.80;;;;;;;0.50;31.68;100151.94;5064438;28;20028;-73
2022/01/20 12:13:49;;;;;;;2.30;0.68;;;;;;;0.39;31.86;100164.41;5064036;28;20052;-73
2022/01/20 12:16:23;;;;;;;2.10;0.90;;;;;;;0.45;32.13;100186.69;5063951;28;20055;-74
2022/01/20 12:18:50;;;;;;;0.80;0.60;;;;;;;0.47;31.75;100152.72;5064337;28;20029;-72
2022/01/20 12:21:16;;;;;;;0.60;0.60;;;;;;;0.45;32.28;100176.47;5063950;28;20029;-72
2022/01/20 12:23:47;;;;;;;0.95;0.70;;;;;;;0.52;32.38;100203.94;5045960;28;20310;-71
2022/01/20 12:26:13;;;;;;;1.15;0.80;;;;;;;0.38;31.72;100193.31;5045500;28;20047;-73
2022/01/20 12:28:40;;;;;;;3.22;0.80;;;;;;;0.44;31.83;100193.50;5063842;28;20044;-75
2022/01/20 12:31:08;;;;;;;2.67;0.70;;;;;;;0.52;31.03;100174.97;5063946;28;20047;-71
2022/01/20 12:33:37;;;;;;;3.25;0.77;;;;;;;0.30;31.21;100174.34;5063953;28;20056;-71
2022/01/20 12:36:04;;;;;;;1.00;0.70;;;;;;;0.28;31.39;100178.53;5041861;28;20052;-74
2022/01/20 12:38:32;;;;;;;1.10;0.88;;;;;;;0.40;31.62;100195.94;5044127;28;20092;-72
2022/01/20 12:41:06;;;;;;;0.70;0.60;;;;;;;0.39;31.36;100200.16;5043829;28;20022;-73
2022/01/20 12:43:53;;;;;;;4.32;0.90;;;;;;;0.39;31.57;100200.16;5043716;28;20047;-73
2022/01/20 12:46:27;;;;;;;0.75;0.60;;;;;;;0.38;32.11;100189.91;5043633;28;20363;-74
2022/01/20 12:49:04;;;;;;;4.80;0.90;;;;;;;0.34;32.33;100191.47;5043242;28;20087;-73
2022/01/20 12:51:34;;;;;;;2.50;0.70;;;;;;;0.37;32.04;100194.13;5041135;28;20017;-69
2022/01/20 12:54:11;;;;;;;5.13;1.00;;;;;;;0.33;32.12;100199.97;5043036;28;20051;-71
2022/01/20 12:56:39;;;;;;;1.48;0.80;;;;;;;0.21;31.93;100188.56;5043995;28;20040;-74